Huvudsida
METAR-TAF:

METAR-TAF

Flygplatser :

Uleåborgs flygplats

Uleåborg, Finland

latitud: 64-56N, longitud: 025-22E, höjd: 12 m

Aktuellt väderrapport

Denna rapport gjordes för 37 minuter sedan, klockan 11:20 UTC
Vind 5 kt från nordost, varierande mellan nord och ost/nordost
Temperatur -2°C
Fuktighet 93%
Tryck 1019 hPa
Sikt 10 km eller mer

METAR: EFOU 111120Z AUTO 04005KT 360V060 9999 OVC004/// M02/M03 Q1019

Tid: 13:57 (11:57 UTC)

Väderprognos

Denna rapport gjordes för 32 minuter sedan, klockan 11:25 UTC
Prognos gäller från 11 kl. 12 UTC till 12 kl. 12 UTC
Vind 3 kt från nordost
Sikt 10 km eller mer
Spridda moln på en höjd av 800 ft
Brutna moln på en höjd av 2000 ft
Temporärt
från 11 kl. 12 UTC till 11 kl. 24 UTC
Brutna moln på en höjd av 400 ft
Temporärt
från 12 kl. 00 UTC till 12 kl. 09 UTC
Brutna moln på en höjd av 500 ft

TAF: EFOU 111125Z 1112/1212 04003KT 9999 SCT008 BKN020 TEMPO 1112/1124 BKN004 TEMPO 1200/1209 BKN005

Aktuella väderrapporter och prognoser från 4000 flygplatser (METAR- och TAF-rapporter).

De tillgängliga stationerna syns som gula och röda prickar på kartan.

För musen över prickarna för att se namnen på stationerna.

Klicka sedan för att få väderrapporter och prognoser.

För att ändra kartan: Klicka på de gröna knapparna med ett svart kors på för att zooma in; den gröna knappen med ett streck på för att zooma ut; eller på de gröna pilarna för angränsande kartor.


METAR-TAF: